Time;durP1;ratioP1;P1;durP2;ratioP2;P2;SDS_P1;SDS_P2;PMS_P1;PMS_P2;Temp;Humidity;BMP_temperature;BMP_pressure;BME280_temperature;BME280_humidity;BME280_pressure;Samples;Min_cycle;Max_cycle;Signal;HPM_P1;HPM_P2
2021/12/27 00:00:09;;;;;;;6.20;4.43;;;4.40;1.00;;;;;;5010755;28;20223;-60
2021/12/27 00:02:36;;;;;;;5.80;4.47;;;4.40;1.00;;;;;;5011366;28;20250;-60
2021/12/27 00:05:03;;;;;;;5.87;4.63;;;4.40;1.00;;;;;;5011569;28;20207;-60
2021/12/27 00:07:30;;;;;;;6.97;4.90;;;4.40;1.00;;;;;;5010927;28;20228;-56
2021/12/27 00:10:00;;;;;;;6.80;4.30;;;4.40;1.00;;;;;;5011205;28;20207;-59
2021/12/27 00:12:26;;;;;;;5.83;4.17;;;4.40;1.00;;;;;;5010717;28;20207;-60
2021/12/27 00:14:53;;;;;;;6.47;4.57;;;4.30;1.00;;;;;;5011192;28;20211;-59
2021/12/27 00:17:20;;;;;;;6.17;4.17;;;4.30;1.00;;;;;;5014833;28;20235;-58
2021/12/27 00:19:47;;;;;;;5.40;4.00;;;4.40;1.00;;;;;;5015367;28;20288;-60
2021/12/27 00:22:14;;;;;;;6.17;4.13;;;4.30;1.00;;;;;;5015343;28;20236;-60
2021/12/27 00:24:46;;;;;;;5.87;4.20;;;4.40;1.00;;;;;;5015592;28;20214;-57
2021/12/27 00:27:15;;;;;;;5.23;4.23;;;4.30;1.00;;;;;;5015505;28;20220;-60
2021/12/27 00:29:42;;;;;;;6.03;4.37;;;4.30;11.60;;;;;;5015130;28;20208;-60
2021/12/27 00:32:09;;;;;;;5.83;4.27;;;4.30;23.20;;;;;;5014671;28;20211;-59
2021/12/27 00:34:37;;;;;;;5.77;4.37;;;4.20;51.80;;;;;;5015259;28;20937;-59
2021/12/27 00:37:04;;;;;;;6.60;4.43;;;4.30;77.20;;;;;;5014870;28;20241;-60
2021/12/27 00:39:31;;;;;;;5.10;4.00;;;4.20;94.70;;;;;;5014254;28;20277;-60
2021/12/27 00:41:58;;;;;;;5.87;4.33;;;4.30;99.90;;;;;;5014030;28;20504;-60
2021/12/27 00:44:26;;;;;;;6.40;4.07;;;4.20;99.90;;;;;;5016547;28;20196;-60
2021/12/27 00:46:53;;;;;;;6.23;4.40;;;4.20;99.90;;;;;;5015426;28;20208;-60
2021/12/27 00:49:20;;;;;;;5.87;4.37;;;4.20;99.90;;;;;;5015416;28;20474;-60
2021/12/27 00:51:47;;;;;;;5.13;4.17;;;4.20;99.90;;;;;;5012736;28;20214;-60
2021/12/27 00:54:14;;;;;;;5.33;3.60;;;4.20;99.90;;;;;;5014291;28;20277;-58
2021/12/27 00:56:42;;;;;;;6.43;4.80;;;4.20;99.90;;;;;;5014348;28;20616;-60
2021/12/27 00:59:09;;;;;;;6.47;4.33;;;4.10;99.90;;;;;;5014033;28;20815;-60
2021/12/27 01:01:37;;;;;;;6.77;4.87;;;4.10;99.90;;;;;;5014280;28;20207;-60
2021/12/27 01:04:05;;;;;;;5.43;4.17;;;4.10;99.90;;;;;;5014467;28;20207;-59
2021/12/27 01:06:32;;;;;;;6.50;4.80;;;4.10;99.90;;;;;;5014035;28;20214;-60
2021/12/27 01:08:59;;;;;;;6.97;4.93;;;4.10;99.90;;;;;;5013702;28;20223;-60
2021/12/27 01:11:36;;;;;;;6.50;4.90;;;4.10;99.90;;;;;;5013189;28;20223;-59
2021/12/27 01:14:09;;;;;;;5.97;4.33;;;4.10;99.90;;;;;;5014706;28;20489;-60
2021/12/27 01:16:39;;;;;;;6.63;5.17;;;4.20;99.90;;;;;;5014263;28;20450;-60
2021/12/27 01:19:06;;;;;;;6.03;4.43;;;4.10;99.90;;;;;;5013347;28;20231;-60
2021/12/27 01:21:34;;;;;;;5.80;4.43;;;4.10;99.90;;;;;;5013224;28;20480;-60
2021/12/27 01:24:02;;;;;;;5.87;4.67;;;4.10;99.90;;;;;;5013706;28;21044;-60
2021/12/27 01:26:29;;;;;;;6.33;4.53;;;4.10;99.90;;;;;;5013147;28;20956;-59
2021/12/27 01:28:57;;;;;;;6.57;4.87;;;4.10;99.90;;;;;;5014723;28;20469;-59
2021/12/27 01:31:25;;;;;;;5.73;4.40;;;4.10;99.90;;;;;;5014807;28;20473;-60
2021/12/27 01:33:53;;;;;;;7.07;4.87;;;4.10;99.90;;;;;;5014286;28;20207;-60
2021/12/27 01:36:20;;;;;;;6.10;4.70;;;4.10;99.90;;;;;;5014716;28;20196;-62
2021/12/27 01:38:48;;;;;;;7.10;4.47;;;4.10;99.90;;;;;;5012908;28;20246;-60
2021/12/27 01:41:16;;;;;;;6.97;5.07;;;4.10;99.90;;;;;;5014485;28;20235;-59
2021/12/27 01:43:43;;;;;;;7.03;4.80;;;4.20;99.90;;;;;;5013460;28;20454;-60
2021/12/27 01:46:14;;;;;;;5.97;4.43;;;4.20;99.90;;;;;;5013274;28;20451;-60
2021/12/27 01:48:45;;;;;;;5.63;4.27;;;4.30;99.90;;;;;;5013452;28;20234;-60
2021/12/27 01:51:15;;;;;;;7.43;5.47;;;4.30;99.90;;;;;;5012695;28;20211;-60
2021/12/27 01:53:44;;;;;;;6.57;4.63;;;4.30;99.90;;;;;;5013767;28;20454;-60
2021/12/27 01:56:12;;;;;;;6.20;4.70;;;4.30;99.90;;;;;;5013600;28;20204;-59
2021/12/27 01:58:39;;;;;;;6.27;4.70;;;4.30;99.90;;;;;;5013648;28;20618;-59
2021/12/27 02:01:09;;;;;;;6.90;4.90;;;4.30;99.90;;;;;;5013081;28;20901;-59
2021/12/27 02:03:37;;;;;;;5.97;4.43;;;4.40;99.90;;;;;;5013842;28;20196;-60
2021/12/27 02:06:06;;;;;;;6.07;4.30;;;4.40;99.90;;;;;;5013076;28;20508;-60
2021/12/27 02:08:36;;;;;;;6.60;4.57;;;4.40;99.90;;;;;;5013051;28;20231;-60
2021/12/27 02:11:03;;;;;;;8.10;4.83;;;4.40;99.90;;;;;;5013171;28;20230;-57
2021/12/27 02:13:30;;;;;;;7.60;4.77;;;4.40;99.90;;;;;;5013142;28;20693;-58
2021/12/27 02:15:57;;;;;;;5.50;4.27;;;4.40;99.90;;;;;;5012772;28;20641;-59
2021/12/27 02:18:24;;;;;;;6.83;5.17;;;4.40;99.90;;;;;;5012595;28;20727;-60
2021/12/27 02:20:52;;;;;;;6.03;4.50;;;4.40;99.90;;;;;;5012911;28;20787;-60
2021/12/27 02:23:19;;;;;;;5.70;4.40;;;4.30;99.90;;;;;;5012841;28;20211;-60
2021/12/27 02:25:48;;;;;;;6.80;4.20;;;4.40;99.90;;;;;;5013454;28;20246;-60
2021/12/27 02:28:16;;;;;;;6.83;5.00;;;4.40;99.90;;;;;;5012394;28;20231;-60
2021/12/27 02:30:45;;;;;;;6.60;4.80;;;4.40;99.90;;;;;;5012791;28;20544;-58
2021/12/27 02:33:12;;;;;;;5.53;4.53;;;4.40;99.90;;;;;;5012580;28;20208;-60
2021/12/27 02:35:41;;;;;;;6.17;4.30;;;4.40;99.90;;;;;;5012672;28;20208;-60
2021/12/27 02:38:12;;;;;;;5.43;3.93;;;4.40;99.90;;;;;;5012304;28;20242;-60
2021/12/27 02:40:39;;;;;;;6.07;4.10;;;4.40;99.90;;;;;;5012129;28;20227;-60
2021/12/27 02:43:08;;;;;;;6.30;4.40;;;4.40;99.90;;;;;;5012758;28;20246;-59
2021/12/27 02:45:38;;;;;;;5.37;4.07;;;4.40;99.90;;;;;;5012779;28;20212;-60
2021/12/27 02:48:06;;;;;;;5.80;4.17;;;4.40;99.90;;;;;;5012958;28;20223;-60
2021/12/27 02:50:33;;;;;;;4.77;3.67;;;4.40;99.90;;;;;;5012166;28;20580;-59
2021/12/27 02:53:01;;;;;;;4.93;3.67;;;4.40;99.90;;;;;;5012798;28;20570;-59
2021/12/27 02:55:29;;;;;;;5.53;4.10;;;4.50;99.90;;;;;;5012600;28;20212;-60
2021/12/27 02:57:56;;;;;;;6.33;4.10;;;4.40;99.90;;;;;;5012348;28;20243;-60
2021/12/27 03:00:27;;;;;;;5.83;4.40;;;4.50;99.90;;;;;;5012196;28;20224;-60
2021/12/27 03:02:54;;;;;;;6.20;4.00;;;4.40;99.90;;;;;;5012795;28;20221;-60
2021/12/27 03:05:24;;;;;;;5.70;4.27;;;4.40;99.90;;;;;;5012445;28;20199;-60
2021/12/27 03:07:52;;;;;;;6.30;3.97;;;4.40;99.90;;;;;;5012365;28;20278;-60
2021/12/27 03:10:22;;;;;;;5.17;4.20;;;4.40;99.90;;;;;;5012341;28;20301;-59
2021/12/27 03:12:51;;;;;;;4.83;4.17;;;4.40;99.90;;;;;;5012027;28;20203;-60
2021/12/27 03:15:19;;;;;;;5.27;3.77;;;4.40;99.90;;;;;;5011910;28;20291;-60
2021/12/27 03:17:48;;;;;;;5.50;4.23;;;4.40;99.90;;;;;;5011436;28;20293;-59
2021/12/27 03:20:17;;;;;;;6.63;4.47;;;4.40;99.90;;;;;;5011599;28;20227;-60
2021/12/27 03:22:45;;;;;;;5.00;4.10;;;4.50;99.90;;;;;;5011534;28;20921;-59
2021/12/27 03:25:15;;;;;;;7.47;4.53;;;4.50;99.90;;;;;;5011989;28;20207;-60
2021/12/27 03:27:42;;;;;;;6.30;4.33;;;4.40;99.90;;;;;;5011677;28;20289;-60
2021/12/27 03:30:13;;;;;;;7.97;4.80;;;4.40;99.90;;;;;;5011983;28;20203;-60
2021/12/27 03:32:40;;;;;;;6.30;4.63;;;4.40;99.90;;;;;;5011902;28;20269;-58
2021/12/27 03:35:13;;;;;;;6.00;4.90;;;4.40;99.90;;;;;;5012310;28;20250;-59
2021/12/27 03:37:42;;;;;;;6.53;4.43;;;4.40;99.90;;;;;;5011512;28;20261;-60
2021/12/27 03:40:11;;;;;;;5.17;4.23;;;4.40;99.90;;;;;;5010821;28;20661;-57
2021/12/27 03:42:38;;;;;;;6.13;4.80;;;4.50;99.90;;;;;;5011575;28;20207;-58
2021/12/27 03:45:07;;;;;;;6.73;4.60;;;4.50;99.90;;;;;;5011634;28;20211;-60
2021/12/27 03:47:35;;;;;;;7.10;5.07;;;4.60;99.90;;;;;;5011053;28;20281;-58
2021/12/27 03:50:03;;;;;;;6.73;5.07;;;4.50;99.90;;;;;;5011160;28;20211;-60
2021/12/27 03:52:30;;;;;;;6.97;4.93;;;4.60;99.90;;;;;;5010702;28;20209;-60
2021/12/27 03:54:57;;;;;;;8.27;5.67;;;4.50;99.90;;;;;;5011518;28;20211;-59
2021/12/27 03:57:24;;;;;;;7.87;5.47;;;4.50;99.90;;;;;;5011243;28;20223;-60
2021/12/27 04:00:14;;;;;;;8.13;5.40;;;4.50;99.90;;;;;;5011726;28;20208;-62
2021/12/27 04:02:40;;;;;;;6.63;5.17;;;4.60;99.90;;;;;;5011387;28;20856;-58
2021/12/27 04:05:08;;;;;;;7.27;5.67;;;4.60;99.90;;;;;;5010685;28;20280;-60
2021/12/27 04:07:36;;;;;;;8.17;5.50;;;4.50;99.90;;;;;;5010993;28;20227;-60
2021/12/27 04:10:03;;;;;;;9.17;6.23;;;4.50;99.90;;;;;;5011223;28;20210;-59
2021/12/27 04:12:30;;;;;;;7.50;5.53;;;4.50;1.00;;;;;;5011095;28;20212;-59
2021/12/27 04:14:57;;;;;;;8.67;6.00;;;4.50;1.00;;;;;;5010591;28;20210;-58
2021/12/27 04:17:23;;;;;;;9.30;6.60;;;4.50;1.00;;;;;;5010263;28;20761;-59
2021/12/27 04:19:52;;;;;;;8.73;6.27;;;4.50;1.00;;;;;;5011268;28;20216;-60
2021/12/27 04:22:19;;;;;;;8.70;5.90;;;4.50;1.00;;;;;;5010889;28;20227;-59
2021/12/27 04:24:45;;;;;;;9.10;6.23;;;4.50;1.00;;;;;;5011335;28;20211;-58
2021/12/27 04:27:12;;;;;;;8.40;5.37;;;4.60;1.00;;;;;;5010312;28;20203;-60
2021/12/27 04:29:39;;;;;;;7.60;5.47;;;4.60;1.00;;;;;;5011492;28;21000;-58
2021/12/27 04:32:07;;;;;;;7.53;5.37;;;4.60;1.00;;;;;;5011241;28;20270;-60
2021/12/27 04:34:34;;;;;;;6.43;5.13;;;4.50;1.00;;;;;;5011380;28;20219;-60
2021/12/27 04:37:02;;;;;;;8.70;6.17;;;4.60;1.00;;;;;;5011234;28;20816;-60
2021/12/27 04:39:29;;;;;;;8.30;5.37;;;4.60;1.00;;;;;;5010556;28;20223;-60
2021/12/27 04:41:57;;;;;;;8.17;5.20;;;4.60;1.00;;;;;;5011536;28;20327;-59
2021/12/27 04:44:24;;;;;;;7.63;5.70;;;4.70;1.00;;;;;;5011279;28;20219;-57
2021/12/27 04:46:50;;;;;;;8.50;5.77;;;4.70;1.00;;;;;;5011463;28;20281;-60
2021/12/27 04:49:17;;;;;;;6.20;4.90;;;4.70;1.00;;;;;;5011659;28;20280;-60
2021/12/27 04:51:44;;;;;;;7.23;5.40;;;4.80;1.00;;;;;;5012459;28;20212;-61
2021/12/27 04:54:12;;;;;;;6.17;4.90;;;4.70;1.00;;;;;;5011331;28;20207;-60
2021/12/27 04:56:39;;;;;;;7.60;5.30;;;4.70;99.90;;;;;;5010885;28;20207;-60
2021/12/27 04:59:06;;;;;;;7.73;5.30;;;4.70;99.90;;;;;;5010464;28;20227;-58
2021/12/27 05:01:33;;;;;;;7.27;5.37;;;4.70;1.00;;;;;;5011443;28;20219;-60
2021/12/27 05:03:59;;;;;;;6.87;5.30;;;4.60;99.90;;;;;;5015080;28;20254;-60
2021/12/27 05:06:27;;;;;;;6.93;4.90;;;4.60;99.90;;;;;;5013359;28;20216;-60
2021/12/27 05:08:54;;;;;;;8.73;5.07;;;4.50;99.90;;;;;;5013829;28;20323;-60
2021/12/27 05:11:22;;;;;;;7.27;5.37;;;4.40;99.90;;;;;;5014217;28;20673;-60
2021/12/27 05:13:49;;;;;;;7.40;5.70;;;4.40;99.90;;;;;;5014433;28;20214;-59
2021/12/27 05:16:16;;;;;;;7.27;5.43;;;4.40;1.00;;;;;;5013863;28;20212;-59
2021/12/27 05:18:43;;;;;;;8.07;5.67;;;4.40;1.00;;;;;;5014300;28;20604;-60
2021/12/27 05:21:09;;;;;;;8.53;5.70;;;4.40;1.00;;;;;;5014363;28;20225;-60
2021/12/27 05:23:36;;;;;;;6.97;5.20;;;4.50;1.00;;;;;;5015011;28;20216;-61
2021/12/27 05:26:03;;;;;;;7.93;6.10;;;4.40;1.00;;;;;;5014016;28;20820;-60
2021/12/27 05:28:31;;;;;;;7.87;5.60;;;4.40;1.00;;;;;;5013812;28;20283;-60
2021/12/27 05:30:58;;;;;;;7.87;5.97;;;4.40;1.00;;;;;;5013652;28;20683;-59
2021/12/27 05:33:25;;;;;;;7.37;5.43;;;4.50;1.00;;;;;;5013783;28;20223;-58
2021/12/27 05:35:52;;;;;;;7.80;6.20;;;4.50;1.00;;;;;;5014142;28;20217;-59
2021/12/27 05:38:18;;;;;;;8.00;5.93;;;4.50;1.00;;;;;;5013887;28;20663;-60
2021/12/27 05:40:45;;;;;;;8.77;6.20;;;4.50;1.00;;;;;;5013813;28;20207;-60
2021/12/27 05:43:12;;;;;;;7.90;5.70;;;4.50;1.00;;;;;;5013696;28;20254;-60
2021/12/27 05:45:40;;;;;;;8.13;5.83;;;4.50;1.00;;;;;;5013425;28;20677;-60
2021/12/27 05:48:07;;;;;;;7.03;5.50;;;4.50;1.00;;;;;;5013993;28;20227;-60
2021/12/27 05:50:35;;;;;;;6.83;5.00;;;4.60;1.00;;;;;;5013286;28;20265;-60
2021/12/27 05:53:02;;;;;;;8.83;6.00;;;4.60;1.00;;;;;;5013657;28;20238;-60
2021/12/27 05:55:29;;;;;;;6.03;5.00;;;4.60;1.00;;;;;;5012711;28;20682;-60
2021/12/27 05:57:56;;;;;;;7.73;5.87;;;4.60;1.00;;;;;;5013803;28;20232;-59
2021/12/27 06:00:24;;;;;;;7.77;6.03;;;4.60;1.00;;;;;;5013572;28;20213;-59
2021/12/27 06:02:54;;;;;;;8.17;5.73;;;4.60;1.00;;;;;;5014233;28;20308;-60
2021/12/27 06:05:21;;;;;;;8.23;5.93;;;4.70;1.00;;;;;;5013336;28;20211;-60
2021/12/27 06:07:48;;;;;;;7.37;5.13;;;4.70;1.00;;;;;;5013138;28;20284;-60
2021/12/27 06:10:15;;;;;;;7.30;5.67;;;4.70;1.00;;;;;;5013519;28;20231;-60
2021/12/27 06:12:42;;;;;;;7.27;5.53;;;4.70;1.00;;;;;;5013727;28;20210;-60
2021/12/27 06:15:10;;;;;;;7.87;5.47;;;4.70;1.00;;;;;;5012741;28;20207;-60
2021/12/27 06:17:37;;;;;;;7.17;5.40;;;4.70;1.00;;;;;;5013039;28;20776;-59
2021/12/27 06:20:09;;;;;;;7.90;5.07;;;4.80;1.00;;;;;;5013775;28;20683;-56
2021/12/27 06:22:38;;;;;;;7.60;5.30;;;4.80;1.00;;;;;;5012985;28;20227;-58
2021/12/27 06:25:05;;;;;;;9.53;6.33;;;4.80;1.00;;;;;;5013264;28;20212;-60
2021/12/27 06:27:32;;;;;;;7.10;5.37;;;4.80;1.00;;;;;;5012641;28;20230;-59
2021/12/27 06:29:59;;;;;;;7.50;5.70;;;4.80;1.00;;;;;;5012713;28;20698;-59
2021/12/27 06:32:26;;;;;;;7.47;5.03;;;4.80;1.00;;;;;;5012830;28;20209;-60
2021/12/27 06:34:53;;;;;;;8.47;6.00;;;4.80;1.00;;;;;;5012885;28;20204;-58
2021/12/27 06:37:21;;;;;;;8.13;5.57;;;4.70;1.00;;;;;;5012619;28;20224;-59
2021/12/27 06:39:48;;;;;;;8.47;5.33;;;4.70;1.00;;;;;;5012282;28;20204;-58
2021/12/27 06:42:15;;;;;;;7.27;5.60;;;4.70;1.00;;;;;;5012806;28;20213;-59
2021/12/27 06:44:42;;;;;;;8.00;5.40;;;4.70;99.90;;;;;;5011318;28;20222;-57
2021/12/27 06:47:09;;;;;;;7.63;5.70;;;4.70;99.90;;;;;;5012092;28;20681;-57
2021/12/27 06:49:37;;;;;;;8.53;6.03;;;4.70;99.90;;;;;;5012319;28;20208;-59
2021/12/27 06:52:05;;;;;;;7.53;6.13;;;4.70;99.90;;;;;;5011848;28;20214;-60
2021/12/27 06:54:33;;;;;;;8.37;6.30;;;4.80;1.00;;;;;;5011808;28;20190;-59
2021/12/27 06:57:00;;;;;;;9.03;6.03;;;4.80;1.00;;;;;;5012278;28;20783;-60
2021/12/27 06:59:27;;;;;;;6.97;5.37;;;4.80;1.00;;;;;;5012617;28;20218;-59
2021/12/27 07:01:54;;;;;;;8.20;6.00;;;4.80;1.00;;;;;;5012383;28;20691;-59
2021/12/27 07:04:20;;;;;;;8.20;6.00;;;4.90;1.00;;;;;;5012332;28;20711;-60
2021/12/27 07:06:47;;;;;;;8.07;5.70;;;4.90;1.00;;;;;;5011181;28;20248;-60
2021/12/27 07:09:14;;;;;;;6.43;5.23;;;4.90;1.00;;;;;;5011676;28;20233;-59
2021/12/27 07:11:42;;;;;;;7.70;5.77;;;4.90;1.00;;;;;;5011864;28;20804;-60
2021/12/27 07:14:09;;;;;;;8.70;5.97;;;5.00;1.00;;;;;;5012217;28;20208;-60
2021/12/27 07:16:36;;;;;;;7.70;5.73;;;5.00;1.00;;;;;;5023362;28;20210;-59
2021/12/27 07:19:03;;;;;;;9.10;5.50;;;5.00;99.90;;;;;;5031886;28;20232;-60
2021/12/27 07:21:29;;;;;;;7.83;5.83;;;5.00;99.90;;;;;;5031659;28;20285;-59
2021/12/27 07:23:56;;;;;;;10.87;5.63;;;5.00;1.00;;;;;;5031384;28;20203;-59
2021/12/27 07:26:23;;;;;;;9.03;6.00;;;5.00;1.00;;;;;;5031307;28;20212;-59
2021/12/27 07:28:51;;;;;;;7.93;5.67;;;5.10;1.00;;;;;;5032107;28;20780;-60
2021/12/27 07:31:18;;;;;;;8.60;5.67;;;5.10;1.00;;;;;;5032218;28;20675;-60
2021/12/27 07:33:44;;;;;;;8.07;5.80;;;5.10;1.00;;;;;;5032180;28;20630;-60
2021/12/27 07:36:11;;;;;;;6.97;5.03;;;5.10;1.00;;;;;;5032126;28;20678;-59
2021/12/27 07:38:39;;;;;;;7.63;5.27;;;5.20;1.00;;;;;;5031808;28;20241;-59
2021/12/27 07:41:06;;;;;;;7.03;4.90;;;5.20;99.90;;;;;;5032136;28;20214;-60
2021/12/27 07:43:33;;;;;;;8.00;5.20;;;5.20;99.90;;;;;;5032595;28;20209;-60
2021/12/27 07:46:01;;;;;;;8.10;5.47;;;5.30;99.90;;;;;;5031956;28;20210;-59
2021/12/27 07:48:28;;;;;;;8.93;5.53;;;5.30;99.90;;;;;;5032091;28;20227;-61
2021/12/27 07:50:54;;;;;;;7.93;5.17;;;5.40;99.90;;;;;;5032225;28;20212;-60
2021/12/27 07:53:21;;;;;;;7.27;5.20;;;5.40;99.90;;;;;;5031763;28;20729;-59
2021/12/27 07:55:48;;;;;;;8.10;5.47;;;5.40;99.90;;;;;;5031804;28;20605;-59
2021/12/27 07:58:14;;;;;;;8.70;5.97;;;5.40;99.90;;;;;;5031988;28;20226;-59
2021/12/27 08:00:41;;;;;;;9.67;5.70;;;5.30;99.90;;;;;;5031747;28;20213;-59
2021/12/27 08:03:09;;;;;;;8.17;5.73;;;5.40;99.90;;;;;;5031931;28;20233;-56
2021/12/27 08:05:36;;;;;;;8.73;5.83;;;5.30;99.90;;;;;;5031823;28;20268;-56
2021/12/27 08:08:02;;;;;;;9.03;5.33;;;5.30;99.90;;;;;;5032277;28;20258;-59
2021/12/27 08:10:30;;;;;;;7.27;5.57;;;5.30;99.90;;;;;;5032877;28;20210;-57
2021/12/27 08:12:57;;;;;;;7.57;5.20;;;5.30;99.90;;;;;;5031650;28;20248;-57
2021/12/27 08:15:24;;;;;;;7.43;5.47;;;5.50;99.90;;;;;;5031688;28;20660;-59
2021/12/27 08:17:51;;;;;;;6.33;4.53;;;5.50;99.90;;;;;;5031564;28;20234;-59
2021/12/27 08:20:19;;;;;;;8.40;5.83;;;5.40;99.90;;;;;;5032388;28;20872;-59
2021/12/27 08:22:46;;;;;;;8.93;4.73;;;5.50;99.90;;;;;;5032322;28;20230;-59
2021/12/27 08:25:12;;;;;;;6.50;5.17;;;5.50;99.90;;;;;;5031931;28;20209;-58
2021/12/27 08:27:42;;;;;;;7.77;5.17;;;5.60;99.90;;;;;;5031347;28;20241;-58
2021/12/27 08:30:10;;;;;;;6.40;4.53;;;5.60;99.90;;;;;;5031552;28;20206;-59
2021/12/27 08:32:39;;;;;;;6.87;5.30;;;5.70;99.90;;;;;;5031608;28;20560;-59
2021/12/27 08:35:08;;;;;;;6.47;4.90;;;5.70;99.90;;;;;;5031078;28;20252;-56
2021/12/27 08:37:36;;;;;;;6.60;4.53;;;5.70;99.90;;;;;;5033204;28;20234;-57
2021/12/27 08:40:05;;;;;;;5.70;4.60;;;5.80;99.90;;;;;;5035459;28;20290;-59
2021/12/27 08:42:32;;;;;;;6.60;4.80;;;5.80;99.90;;;;;;5035506;28;20229;-57
2021/12/27 08:45:00;;;;;;;6.40;5.07;;;5.80;99.90;;;;;;5035316;28;20206;-59
2021/12/27 08:47:26;;;;;;;7.23;4.70;;;5.90;99.90;;;;;;5035253;28;20230;-58
2021/12/27 08:49:53;;;;;;;6.50;4.53;;;5.90;99.90;;;;;;5035259;28;20210;-58
2021/12/27 08:52:20;;;;;;;7.13;5.37;;;5.90;99.90;;;;;;5035465;28;20214;-63
2021/12/27 08:54:48;;;;;;;6.07;4.73;;;5.80;99.90;;;;;;5035485;28;20205;-59
2021/12/27 08:57:15;;;;;;;7.20;5.07;;;5.90;99.90;;;;;;5034842;28;20677;-60
2021/12/27 08:59:42;;;;;;;7.27;4.97;;;5.80;99.90;;;;;;5035388;28;20206;-59
2021/12/27 09:02:09;;;;;;;6.80;4.63;;;5.70;99.90;;;;;;5035160;28;20218;-62
2021/12/27 09:04:35;;;;;;;7.47;5.27;;;5.70;99.90;;;;;;5035329;28;20614;-61
2021/12/27 09:07:02;;;;;;;5.50;4.20;;;5.80;99.90;;;;;;5025924;28;20210;-62
2021/12/27 09:09:29;;;;;;;8.17;4.83;;;5.80;99.90;;;;;;5013075;28;20210;-62
2021/12/27 09:11:59;;;;;;;7.30;4.80;;;5.80;99.90;;;;;;5014793;28;20203;-60
2021/12/27 09:14:26;;;;;;;6.70;4.40;;;5.70;99.90;;;;;;5015160;28;20345;-60
2021/12/27 09:16:53;;;;;;;5.87;4.47;;;5.80;99.90;;;;;;5015463;28;20216;-60
2021/12/27 09:19:19;;;;;;;5.90;4.40;;;5.80;99.90;;;;;;5015116;28;20281;-60
2021/12/27 09:21:46;;;;;;;4.87;3.43;;;5.80;99.90;;;;;;5015090;28;20213;-60
2021/12/27 09:24:13;;;;;;;4.87;3.57;;;5.80;99.90;;;;;;5015250;28;20261;-59
2021/12/27 09:26:40;;;;;;;6.33;4.20;;;5.80;99.90;;;;;;5015421;28;20234;-60
2021/12/27 09:29:09;;;;;;;6.00;4.63;;;5.70;99.90;;;;;;5014593;28;20727;-60
2021/12/27 09:31:36;;;;;;;8.33;4.23;;;5.70;99.90;;;;;;5014992;28;20214;-60
2021/12/27 09:34:03;;;;;;;6.27;4.63;;;5.70;99.90;;;;;;5014691;28;20209;-59
2021/12/27 09:36:30;;;;;;;6.60;4.33;;;5.80;99.90;;;;;;5014516;28;20715;-60
2021/12/27 09:38:57;;;;;;;4.77;3.77;;;5.90;99.90;;;;;;5014506;28;20242;-61
2021/12/27 09:41:25;;;;;;;8.97;4.93;;;6.00;99.90;;;;;;5014636;28;20210;-60
2021/12/27 09:43:52;;;;;;;7.60;4.07;;;6.00;99.90;;;;;;5014447;28;20252;-60
2021/12/27 09:46:22;;;;;;;5.80;4.00;;;6.10;99.90;;;;;;5013969;28;20731;-60
2021/12/27 09:48:50;;;;;;;7.10;4.17;;;6.20;99.90;;;;;;5013314;28;20238;-61
2021/12/27 09:51:17;;;;;;;5.67;4.20;;;6.20;99.90;;;;;;5014523;28;20218;-60
2021/12/27 09:53:44;;;;;;;4.67;3.53;;;6.30;99.90;;;;;;5009506;28;20635;-61
2021/12/27 09:56:12;;;;;;;5.93;4.07;;;6.30;99.90;;;;;;5011905;28;20215;-58
2021/12/27 09:58:40;;;;;;;4.70;3.57;;;6.40;99.90;;;;;;5014496;28;20231;-60
2021/12/27 10:01:07;;;;;;;5.03;3.33;;;6.50;99.90;;;;;;5013907;28;20207;-61
2021/12/27 10:03:48;;;;;;;6.00;3.67;;;6.50;99.90;;;;;;5014189;28;20289;-60
2021/12/27 10:06:16;;;;;;;4.33;3.37;;;6.60;99.90;;;;;;5013532;28;20210;-59
2021/12/27 10:08:45;;;;;;;4.80;3.07;;;6.60;99.90;;;;;;5013657;28;20639;-57
2021/12/27 10:11:20;;;;;;;3.97;3.10;;;6.60;99.90;;;;;;5014122;28;20253;-63
2021/12/27 10:13:58;;;;;;;4.17;2.63;;;6.50;99.90;;;;;;5013479;28;20202;-60
2021/12/27 10:16:24;;;;;;;5.07;3.10;;;6.50;99.90;;;;;;5013743;28;20628;-61
2021/12/27 10:18:55;;;;;;;5.23;3.40;;;6.50;99.90;;;;;;5013406;28;20238;-61
2021/12/27 10:21:22;;;;;;;4.60;3.10;;;6.50;99.90;;;;;;5013178;28;20217;-61
2021/12/27 10:23:48;;;;;;;5.27;3.43;;;6.50;99.90;;;;;;5012938;28;20234;-61
2021/12/27 10:26:18;;;;;;;4.70;3.13;;;6.60;99.90;;;;;;5013800;28;20214;-60
2021/12/27 10:28:45;;;;;;;5.10;3.10;;;6.70;99.90;;;;;;5013805;28;20313;-61
2021/12/27 10:31:12;;;;;;;3.60;2.60;;;6.80;99.90;;;;;;5013506;28;20254;-60
2021/12/27 10:33:38;;;;;;;5.00;3.00;;;6.80;99.90;;;;;;5013340;28;20634;-62
2021/12/27 10:36:07;;;;;;;6.10;3.10;;;6.90;99.90;;;;;;5013116;28;20207;-62
2021/12/27 10:38:36;;;;;;;5.13;3.17;;;7.00;99.90;;;;;;5013089;28;20292;-61
2021/12/27 10:41:08;;;;;;;3.77;2.57;;;7.10;99.90;;;;;;5013181;28;20233;-62
2021/12/27 10:43:40;;;;;;;3.40;2.50;;;7.20;99.90;;;;;;5013459;28;20229;-63
2021/12/27 10:46:10;;;;;;;4.50;2.80;;;7.20;99.90;;;;;;5013177;28;20207;-63
2021/12/27 10:48:39;;;;;;;3.67;2.60;;;7.30;99.90;;;;;;5013439;28;20250;-63
2021/12/27 10:51:08;;;;;;;3.97;3.00;;;7.40;99.90;;;;;;5013666;28;20222;-63
2021/12/27 10:53:54;;;;;;;3.43;2.70;;;7.40;99.90;;;;;;5013227;28;20207;-63
2021/12/27 10:56:23;;;;;;;3.87;2.60;;;7.40;99.90;;;;;;5013616;28;20219;-64
2021/12/27 10:58:52;;;;;;;3.53;2.80;;;7.40;99.90;;;;;;5013034;28;20725;-63
2021/12/27 11:01:20;;;;;;;3.70;2.73;;;7.40;99.90;;;;;;5012656;28;20591;-62
2021/12/27 11:03:48;;;;;;;4.17;3.17;;;7.30;99.90;;;;;;5012481;28;20231;-63
2021/12/27 11:06:20;;;;;;;3.50;2.90;;;7.20;99.90;;;;;;5013154;28;20215;-61
2021/12/27 11:08:47;;;;;;;4.37;3.07;;;7.30;99.90;;;;;;5012865;28;20313;-62
2021/12/27 11:11:15;;;;;;;3.90;2.53;;;7.40;99.90;;;;;;5012644;28;20665;-64
2021/12/27 11:13:43;;;;;;;4.03;2.70;;;7.50;99.90;;;;;;5013095;28;20203;-64
2021/12/27 11:16:10;;;;;;;4.00;3.03;;;7.60;99.90;;;;;;5020676;28;20241;-64
2021/12/27 11:18:37;;;;;;;4.17;3.00;;;7.70;99.90;;;;;;5017432;28;20223;-61
2021/12/27 11:21:10;;;;;;;2.50;2.30;;;7.70;99.90;;;;;;5012742;28;20298;-61
2021/12/27 11:23:39;;;;;;;3.63;2.53;;;7.80;99.90;;;;;;5012855;28;20223;-63
2021/12/27 11:26:07;;;;;;;3.63;2.47;;;7.90;99.90;;;;;;5012079;28;20265;-60
2021/12/27 11:28:36;;;;;;;3.07;2.50;;;8.00;99.90;;;;;;5012614;28;20605;-59
2021/12/27 11:31:06;;;;;;;3.13;2.40;;;8.00;99.90;;;;;;5012587;28;20212;-59
2021/12/27 11:33:53;;;;;;;3.27;2.50;;;8.00;99.90;;;;;;5012752;28;20203;-57
2021/12/27 11:36:20;;;;;;;4.07;2.70;;;7.90;99.20;;;;;;5014638;28;20254;-61
2021/12/27 11:38:51;;;;;;;2.63;2.07;;;7.80;99.90;;;;;;5012856;28;20241;-62
2021/12/27 11:41:32;;;;;;;3.23;2.23;;;7.80;99.90;;;;;;5012362;28;20752;-62
2021/12/27 11:44:01;;;;;;;2.97;2.33;;;7.60;99.90;;;;;;5012719;28;20418;-62
2021/12/27 11:46:31;;;;;;;2.77;2.43;;;7.70;99.90;;;;;;5014408;28;20217;-60
2021/12/27 11:49:00;;;;;;;2.87;2.00;;;7.70;99.90;;;;;;5018136;28;20234;-59
2021/12/27 11:51:33;;;;;;;3.50;2.57;;;7.60;99.90;;;;;;5018425;28;20210;-60
2021/12/27 11:54:03;;;;;;;3.10;2.33;;;7.70;99.90;;;;;;5012215;28;20207;-60
2021/12/27 11:56:46;;;;;;;3.30;2.50;;;7.70;99.90;;;;;;5012002;28;20203;-62
2021/12/27 11:59:36;;;;;;;2.60;2.20;;;7.80;99.90;;;;;;5012297;28;20237;-64
2021/12/27 12:02:25;;;;;;;4.63;2.30;;;7.90;99.90;;;;;;5010959;28;20207;-62
2021/12/27 12:04:53;;;;;;;2.47;1.90;;;7.90;99.90;;;;;;5011019;28;20234;-60
2021/12/27 12:07:49;;;;;;;3.17;2.50;;;7.90;99.90;;;;;;5011499;28;20595;-61
2021/12/27 12:10:19;;;;;;;2.70;2.30;;;7.90;99.90;;;;;;5012325;28;20250;-61
2021/12/27 12:13:17;;;;;;;3.43;2.20;;;7.80;99.90;;;;;;5011183;28;20234;-61
2021/12/27 12:16:05;;;;;;;3.17;2.50;;;7.80;99.90;;;;;;4994883;28;20253;-61
2021/12/27 12:18:36;;;;;;;3.07;2.53;;;7.80;99.90;;;;;;5011202;28;20665;-61
2021/12/27 12:21:03;;;;;;;2.97;2.40;;;7.80;99.90;;;;;;5011281;28;20677;-61
2021/12/27 12:23:34;;;;;;;4.30;2.57;;;7.90;99.90;;;;;;5011068;28;20277;-61
2021/12/27 12:26:06;;;;;;;2.87;2.40;;;8.00;99.90;;;;;;5011331;28;20203;-61
2021/12/27 12:28:33;;;;;;;2.67;1.90;;;8.00;99.90;;;;;;5010945;28;20666;-61
2021/12/27 12:31:00;;;;;;;2.90;2.43;;;8.10;99.90;;;;;;5010671;28;20215;-61
2021/12/27 12:33:28;;;;;;;2.17;1.97;;;8.30;99.90;;;;;;5011331;28;20203;-61
2021/12/27 12:35:58;;;;;;;3.67;2.50;;;8.40;99.90;;;;;;5010176;28;20224;-61
2021/12/27 12:38:27;;;;;;;2.27;2.07;;;8.50;96.60;;;;;;5010459;28;20235;-61
2021/12/27 12:41:08;;;;;;;2.63;2.33;;;8.40;26.60;;;;;;5010863;28;20211;-61
2021/12/27 12:43:46;;;;;;;2.90;2.60;;;8.40;59.30;;;;;;5011572;28;20232;-61
2021/12/27 12:46:22;;;;;;;2.73;2.00;;;8.40;60.80;;;;;;5010727;28;20223;-61
2021/12/27 12:49:05;;;;;;;2.70;2.03;;;8.50;58.70;;;;;;5010759;28;20236;-61
2021/12/27 12:51:35;;;;;;;2.20;2.00;;;8.50;55.30;;;;;;5011033;28;20211;-61
2021/12/27 12:54:02;;;;;;;2.30;2.00;;;8.60;62.30;;;;;;5010269;28;20255;-61
2021/12/27 12:56:32;;;;;;;3.63;2.20;;;8.60;23.00;;;;;;5010673;28;20698;-61
2021/12/27 12:58:59;;;;;;;2.80;2.00;;;8.60;9.80;;;;;;5011283;28;20714;-61
2021/12/27 13:01:26;;;;;;;2.17;1.87;;;8.70;13.10;;;;;;5011037;28;20218;-61
2021/12/27 13:03:57;;;;;;;2.40;2.00;;;8.70;4.10;;;;;;5010284;28;20227;-61
2021/12/27 13:06:24;;;;;;;2.70;2.13;;;8.70;1.00;;;;;;5012136;28;20205;-61